Port Star — 3EAS6 — position and weather

sailwx.info

Track history (hours):
 
Tides and Currents Weather Stations Pressure Air Temp Water Temp Dewpoint Dewpoint Depression Visibility Wind Speed Wind Dir Waves Ship Positions

Port Star

Last reported at 2016-Dec-06 00:33 UTC. Time now 2016-Dec-06 10:21 UTC.
Position N 01°54' E 102°23'.

Length 175.5 m; beam 29.4 m.

Type: Ship. MMSI: 356105000.

Date/timePositionNaut miles runAvg speedWind from/ knotsBaromVisibWave heightAir tempDewpointWater temp
2016-Dec-06 00:33N 01°54' E 102°23'1313.1
2016-Dec-05 23:33N 01°48' E 102°35'1413.4
2016-Dec-05 22:32N 01°43' E 102°48'6212.2
2016-Dec-05 17:29N 01°11' E 103°40'1010.9
2016-Dec-05 16:33N 01°12' E 103°51'6 6.1
2016-Dec-05 15:33N 01°16' E 103°54'0 0.2
2016-Dec-05 14:29N 01°16' E 103°54'0 0.1
2016-Dec-05 12:29N 01°16' E 103°54'0 0.0
2016-Dec-05 11:29N 01°16' E 103°54'0 0.0
2016-Dec-05 10:29N 01°16' E 103°54'0 0.0
2016-Dec-05 09:32N 01°16' E 103°54'0 0.0
2016-Dec-05 08:29N 01°16' E 103°54'0 0.0
2016-Dec-05 07:32N 01°16' E 103°54'0 0.1
2016-Dec-05 06:32N 01°16' E 103°54'0 0.1
2016-Dec-05 05:29N 01°16' E 103°54'0 0.0
2016-Dec-05 04:05N 01°16' E 103°54'0 0.1
2016-Dec-05 03:20N 01°16' E 103°54'0 0.1
2016-Dec-05 02:26N 01°16' E 103°54'0 0.1
2016-Dec-05 01:33N 01°16' E 103°54'2 2.3
2016-Dec-05 00:33N 01°14' E 103°54'5 5.2
2016-Dec-04 23:33N 01°15' E 103°59'  
2016-Nov-27 15:20N 31°16' E 121°51'8 9.9
2016-Nov-27 14:32N 31°19' E 121°43'9 9.1
2016-Nov-27 13:33N 31°24' E 121°34'9 9.0
2016-Nov-27 12:33N 31°29' E 121°26'1413.5
2016-Nov-27 11:33N 31°39' E 121°14'1414.1
2016-Nov-27 10:33N 31°47' E 121°00'21 9.8
2016-Nov-27 08:25N 32°00' E 120°41'1011.4
2016-Nov-27 07:33N 32°02' E 120°30'1010.4
2016-Nov-27 06:33N 31°58' E 120°19'1010.1
2016-Nov-27 05:33N 31°57' E 120°07'1312.7
2016-Nov-27 04:33N 32°05' E 119°55'  
Track history (hours):
 
Tides and Currents Weather Stations Pressure Air Temp Water Temp Dewpoint Dewpoint Depression Visibility Wind Speed Wind Dir Waves Ship Positions

Port Star

Last reported at 2016-Dec-06 00:33 UTC. Time now 2016-Dec-06 10:21 UTC.
Position N 01°54' E 102°23'.

Length 175.5 m; beam 29.4 m.

Type: Ship. MMSI: 356105000.

Date/timePositionNaut miles runAvg speedWind from/ knotsBaromVisibWave heightAir tempDewpointWater temp
2016-Dec-06 00:33N 01°54' E 102°23'1313.1
2016-Dec-05 23:33N 01°48' E 102°35'1413.4
2016-Dec-05 22:32N 01°43' E 102°48'6212.2
2016-Dec-05 17:29N 01°11' E 103°40'1010.9
2016-Dec-05 16:33N 01°12' E 103°51'6 6.1
2016-Dec-05 15:33N 01°16' E 103°54'0 0.2
2016-Dec-05 14:29N 01°16' E 103°54'0 0.1
2016-Dec-05 12:29N 01°16' E 103°54'0 0.0
2016-Dec-05 11:29N 01°16' E 103°54'0 0.0
2016-Dec-05 10:29N 01°16' E 103°54'0 0.0
2016-Dec-05 09:32N 01°16' E 103°54'0 0.0
2016-Dec-05 08:29N 01°16' E 103°54'0 0.0
2016-Dec-05 07:32N 01°16' E 103°54'0 0.1
2016-Dec-05 06:32N 01°16' E 103°54'0 0.1
2016-Dec-05 05:29N 01°16' E 103°54'0 0.0
2016-Dec-05 04:05N 01°16' E 103°54'0 0.1
2016-Dec-05 03:20N 01°16' E 103°54'0 0.1
2016-Dec-05 02:26N 01°16' E 103°54'0 0.1
2016-Dec-05 01:33N 01°16' E 103°54'2 2.3
2016-Dec-05 00:33N 01°14' E 103°54'5 5.2
2016-Dec-04 23:33N 01°15' E 103°59'  
2016-Nov-27 15:20N 31°16' E 121°51'8 9.9
2016-Nov-27 14:32N 31°19' E 121°43'9 9.1
2016-Nov-27 13:33N 31°24' E 121°34'9 9.0
2016-Nov-27 12:33N 31°29' E 121°26'1413.5
2016-Nov-27 11:33N 31°39' E 121°14'1414.1
2016-Nov-27 10:33N 31°47' E 121°00'21 9.8
2016-Nov-27 08:25N 32°00' E 120°41'1011.4
2016-Nov-27 07:33N 32°02' E 120°30'1010.4
2016-Nov-27 06:33N 31°58' E 120°19'1010.1
2016-Nov-27 05:33N 31°57' E 120°07'1312.7
2016-Nov-27 04:33N 32°05' E 119°55'  

Dump ship's entire track history